createdAt,value
2022-08-22T00:01:31.581Z,1.80
2022-08-22T00:02:56.069Z,1.42
2022-08-22T00:03:11.845Z,1.95
2022-08-22T00:04:07.789Z,2.22
2022-08-22T00:06:49.417Z,1.65
2022-08-22T00:09:37.987Z,2.40
2022-08-22T00:12:30.073Z,1.73
2022-08-22T00:15:27.937Z,2.20
2022-08-22T00:18:08.694Z,2.00
2022-08-22T00:20:39.062Z,1.97
2022-08-22T00:23:18.227Z,1.80
2022-08-22T00:25:58.299Z,2.13
2022-08-22T00:29:02.416Z,1.95
2022-08-22T00:31:41.295Z,2.00
2022-08-22T00:34:22.421Z,1.77
2022-08-22T00:37:07.485Z,2.10
2022-08-22T00:39:58.556Z,2.00
2022-08-22T00:42:32.368Z,1.57
2022-08-22T00:45:40.803Z,1.83
2022-08-22T00:48:08.255Z,1.70
2022-08-22T00:50:57.139Z,2.60
2022-08-22T00:53:42.756Z,2.17
2022-08-22T00:56:29.344Z,2.45
2022-08-22T00:58:57.501Z,1.67
2022-08-22T01:01:51.535Z,2.27
2022-08-22T01:04:49.647Z,2.90
2022-08-22T01:07:38.511Z,2.30
2022-08-22T01:10:33.406Z,2.53
2022-08-22T01:13:00.864Z,2.20
2022-08-22T01:15:33.990Z,2.00
2022-08-22T01:18:40.297Z,2.20
2022-08-22T01:21:43.902Z,1.67
2022-08-22T01:25:18.429Z,2.22
2022-08-22T01:27:57.761Z,2.10
2022-08-22T01:30:28.454Z,2.53
2022-08-22T01:33:24.647Z,2.40
2022-08-22T01:36:16.230Z,2.10
2022-08-22T01:38:48.794Z,1.90
2022-08-22T01:41:53.353Z,1.90
2022-08-22T01:44:51.918Z,2.53
2022-08-22T01:47:25.428Z,2.38
2022-08-22T01:49:53.223Z,1.70
2022-08-22T01:52:34.062Z,2.28
2022-08-22T01:55:09.277Z,2.38
2022-08-22T01:57:50.039Z,2.53
2022-08-22T02:00:19.751Z,2.95
2022-08-22T02:03:50.373Z,2.25
2022-08-22T02:06:38.716Z,1.95
2022-08-22T02:09:20.951Z,2.60
2022-08-22T02:11:55.859Z,2.30
2022-08-22T02:14:33.752Z,2.50
2022-08-22T02:17:27.549Z,1.98
2022-08-22T02:20:20.465Z,2.03
2022-08-22T02:23:04.208Z,2.55
2022-08-22T02:25:46.472Z,2.20
2022-08-22T02:28:19.999Z,2.28
2022-08-22T02:30:47.399Z,2.13
2022-08-22T02:33:35.175Z,2.28
2022-08-22T02:36:30.911Z,2.60
2022-08-22T02:39:07.270Z,2.45
2022-08-22T02:42:02.507Z,2.15
2022-08-22T02:44:29.846Z,2.58
2022-08-22T02:47:06.874Z,2.40
2022-08-22T02:49:43.770Z,2.88
2022-08-22T02:52:24.595Z,2.05
2022-08-22T02:55:07.907Z,2.13
2022-08-22T02:57:53.379Z,2.33
2022-08-22T03:00:31.658Z,2.30
2022-08-22T03:03:00.550Z,2.08
2022-08-22T03:05:44.533Z,2.30
2022-08-22T03:08:17.775Z,2.50
2022-08-22T03:11:03.804Z,2.17
2022-08-22T03:14:07.484Z,2.20
2022-08-22T03:16:34.765Z,2.00
2022-08-22T03:19:31.709Z,2.35
2022-08-22T03:22:25.486Z,2.38
2022-08-22T03:25:08.405Z,2.38
2022-08-22T03:27:41.811Z,2.13
2022-08-22T03:30:09.260Z,2.28
2022-08-22T03:33:13.236Z,2.00
2022-08-22T03:35:40.584Z,2.10
2022-08-22T03:38:33.590Z,2.50
2022-08-22T03:41:38.304Z,2.13
2022-08-22T03:44:44.721Z,2.10
2022-08-22T03:47:18.385Z,2.10
2022-08-22T03:49:45.836Z,2.20
2022-08-22T03:52:35.339Z,2.38
2022-08-22T03:55:32.888Z,2.30
2022-08-22T03:58:41.468Z,2.35
2022-08-22T04:01:36.464Z,1.80
2022-08-22T04:04:12.263Z,2.33
2022-08-22T04:06:42.685Z,2.17
2022-08-22T04:09:44.811Z,2.00
2022-08-22T04:12:25.984Z,2.55
2022-08-22T04:15:08.012Z,2.25
2022-08-22T04:17:35.314Z,2.55
2022-08-22T04:20:16.795Z,2.15
2022-08-22T04:22:59.523Z,2.22
2022-08-22T04:25:50.862Z,2.45
2022-08-22T04:28:25.685Z,2.00
2022-08-22T04:30:57.998Z,2.22
2022-08-22T04:33:33.385Z,2.65
2022-08-22T04:36:04.303Z,2.13
2022-08-22T04:38:39.012Z,2.10
2022-08-22T04:41:18.264Z,2.28
2022-08-22T04:43:45.631Z,2.10
2022-08-22T04:46:26.292Z,3.78
2022-08-22T04:49:21.566Z,1.60
2022-08-22T04:51:59.896Z,2.58
2022-08-22T04:54:30.362Z,2.45
2022-08-22T04:57:37.067Z,2.30
2022-08-22T05:00:08.312Z,2.50
2022-08-22T05:02:38.911Z,2.40
2022-08-22T05:05:25.483Z,2.13
2022-08-22T05:08:00.458Z,2.47
2022-08-22T05:10:38.477Z,2.00
2022-08-22T05:13:15.409Z,2.88
2022-08-22T05:15:47.679Z,2.40
2022-08-22T05:18:29.780Z,2.15
2022-08-22T05:21:01.096Z,2.42
2022-08-22T05:23:46.917Z,2.78
2022-08-22T05:26:15.510Z,2.72
2022-08-22T05:28:52.924Z,2.33
2022-08-22T05:31:34.696Z,2.42
2022-08-22T05:34:14.838Z,2.47
2022-08-22T05:36:46.364Z,2.38
2022-08-22T05:39:25.308Z,2.50
2022-08-22T05:41:55.052Z,3.28
2022-08-22T05:44:22.484Z,2.63
2022-08-22T05:47:19.933Z,2.78
2022-08-22T05:50:00.427Z,2.50
2022-08-22T05:55:25.440Z,2.53
2022-08-22T05:58:11.857Z,2.30
2022-08-22T06:00:44.306Z,2.85
2022-08-22T06:03:14.651Z,2.35
2022-08-22T06:08:37.713Z,2.15
2022-08-22T06:11:33.708Z,2.33
2022-08-22T06:14:28.988Z,2.63
2022-08-22T06:17:07.402Z,3.55
2022-08-22T06:19:39.550Z,2.30
2022-08-22T06:22:07.190Z,3.15
2022-08-22T06:24:37.688Z,2.63
2022-08-22T06:27:10.058Z,2.58
2022-08-22T06:30:00.824Z,3.17
2022-08-22T06:32:58.293Z,3.00
2022-08-22T06:35:29.594Z,2.60
2022-08-22T06:38:00.677Z,2.70
2022-08-22T06:40:29.474Z,3.25
2022-08-22T06:42:58.580Z,2.90
2022-08-22T06:45:32.442Z,2.75
2022-08-22T06:48:06.178Z,3.00
2022-08-22T06:50:37.457Z,2.50
2022-08-22T06:53:05.469Z,3.10
2022-08-22T06:55:34.124Z,2.78
2022-08-22T06:58:15.758Z,3.08
2022-08-22T07:00:45.142Z,2.97
2022-08-22T07:03:18.706Z,3.05
2022-08-22T07:05:46.095Z,2.58
2022-08-22T07:08:20.303Z,2.67
2022-08-22T07:10:59.513Z,2.80
2022-08-22T07:13:28.439Z,2.97
2022-08-22T07:15:59.862Z,2.97
2022-08-22T07:18:29.649Z,3.08
2022-08-22T07:21:00.518Z,3.08
2022-08-22T07:23:31.718Z,2.60
2022-08-22T07:26:24.820Z,3.33
2022-08-22T07:29:37.935Z,2.80
2022-08-22T07:32:11.028Z,2.85
2022-08-22T07:35:07.145Z,3.10
2022-08-22T07:38:13.893Z,2.58
2022-08-22T07:40:53.864Z,2.67
2022-08-22T07:43:30.555Z,3.60
2022-08-22T07:45:57.908Z,3.25
2022-08-22T07:48:59.522Z,2.40
2022-08-22T07:51:40.918Z,2.95
2022-08-22T07:54:11.308Z,2.92
2022-08-22T07:57:01.307Z,2.65
2022-08-22T07:59:29.420Z,3.00
2022-08-22T08:02:00.217Z,2.53
2022-08-22T08:04:36.878Z,2.42
2022-08-22T08:07:10.055Z,2.87
2022-08-22T08:09:49.967Z,2.47
2022-08-22T08:12:22.054Z,2.40
2022-08-22T08:14:53.673Z,2.50
2022-08-22T08:17:33.070Z,3.08
2022-08-22T08:20:07.632Z,2.67
2022-08-22T08:22:35.274Z,3.00
2022-08-22T08:25:03.873Z,3.15
2022-08-22T08:27:57.857Z,2.53
2022-08-22T08:31:07.556Z,2.90
2022-08-22T08:33:39.806Z,2.35
2022-08-22T08:36:47.688Z,3.33
2022-08-22T08:39:35.222Z,2.33
2022-08-22T08:42:32.689Z,2.20
2022-08-22T08:45:02.841Z,2.45
2022-08-22T08:50:51.738Z,2.38
2022-08-22T08:53:18.844Z,2.47
2022-08-22T08:55:58.786Z,2.42
2022-08-22T08:58:44.952Z,2.72
2022-08-22T09:01:16.921Z,2.38
2022-08-22T09:04:05.402Z,2.35
2022-08-22T09:06:53.823Z,2.50
2022-08-22T09:09:39.722Z,2.67
2022-08-22T09:12:13.151Z,2.40
2022-08-22T09:15:14.148Z,2.78
2022-08-22T09:18:08.924Z,2.80
2022-08-22T09:21:15.954Z,2.47
2022-08-22T09:24:44.498Z,2.10
2022-08-22T09:27:18.483Z,3.03
2022-08-22T09:30:11.764Z,3.00
2022-08-22T09:32:59.307Z,3.35
2022-08-22T09:35:44.872Z,2.55
2022-08-22T09:39:23.415Z,2.45
2022-08-22T09:41:57.697Z,2.70
2022-08-22T09:44:59.408Z,2.30
2022-08-22T09:47:50.376Z,2.00
2022-08-22T09:50:22.528Z,2.47
2022-08-22T09:53:19.474Z,2.55
2022-08-22T09:56:11.563Z,2.40
2022-08-22T09:58:54.273Z,2.03
2022-08-22T10:01:49.121Z,2.10
2022-08-22T10:05:00.913Z,1.83
2022-08-22T10:07:34.145Z,2.10
2022-08-22T10:10:32.909Z,2.08
2022-08-22T10:13:00.635Z,1.80
2022-08-22T10:15:28.190Z,2.13
2022-08-22T10:18:22.741Z,2.10
2022-08-22T10:20:56.783Z,2.45
2022-08-22T10:23:35.464Z,1.95
2022-08-22T10:26:45.014Z,2.00
2022-08-22T10:29:30.971Z,2.17
2022-08-22T10:32:14.561Z,1.63
2022-08-22T10:34:47.934Z,1.88
2022-08-22T10:37:46.105Z,1.60
2022-08-22T10:40:26.134Z,1.63
2022-08-22T10:43:10.879Z,1.50
2022-08-22T10:45:43.966Z,1.83
2022-08-22T10:48:11.357Z,1.67
2022-08-22T10:50:43.876Z,2.00
2022-08-22T10:53:33.328Z,1.58
2022-08-22T10:56:14.633Z,1.25
2022-08-22T10:59:01.258Z,1.20
2022-08-22T11:01:42.034Z,1.40
2022-08-22T11:04:41.216Z,1.75
2022-08-22T11:07:11.698Z,1.63
2022-08-22T11:09:51.185Z,1.52
2022-08-22T11:12:43.230Z,1.38
2022-08-22T11:15:24.188Z,1.77
2022-08-22T11:18:12.976Z,1.67
2022-08-22T11:20:40.566Z,2.35
2022-08-22T11:23:32.390Z,1.88
2022-08-22T11:26:14.675Z,2.13
2022-08-22T11:28:57.522Z,2.38
2022-08-22T11:32:06.042Z,1.83
2022-08-22T11:35:17.489Z,1.98
2022-08-22T11:37:44.989Z,2.25
2022-08-22T11:40:38.567Z,2.67
2022-08-22T11:43:34.893Z,2.10
2022-08-22T11:46:19.974Z,1.95
2022-08-22T11:49:09.306Z,1.95
2022-08-22T11:51:57.997Z,2.78
2022-08-22T11:54:34.432Z,2.25
2022-08-22T11:57:07.949Z,2.40
2022-08-22T11:59:59.970Z,1.77
2022-08-22T12:02:57.283Z,2.03
2022-08-22T12:05:33.731Z,2.00
2022-08-22T12:08:01.107Z,2.00
2022-08-22T12:10:59.903Z,1.65
2022-08-22T12:13:42.137Z,1.80
2022-08-22T12:16:15.713Z,2.05
2022-08-22T12:18:55.499Z,2.20
2022-08-22T12:21:23.308Z,1.77
2022-08-22T12:24:19.371Z,1.63
2022-08-22T12:27:29.140Z,1.65
2022-08-22T12:30:28.637Z,2.10
2022-08-22T12:32:56.467Z,1.48
2022-08-22T12:35:29.683Z,1.98
2022-08-22T12:38:28.013Z,1.63
2022-08-22T12:41:28.329Z,1.58
2022-08-22T12:44:26.753Z,1.38
2022-08-22T12:47:04.758Z,1.60
2022-08-22T12:49:52.321Z,1.75
2022-08-22T12:52:25.094Z,1.67
2022-08-22T12:55:07.011Z,1.55
2022-08-22T12:57:59.757Z,1.85
2022-08-22T13:00:30.709Z,1.85
2022-08-22T13:03:04.741Z,1.35
2022-08-22T13:05:34.289Z,1.63
2022-08-22T13:08:20.825Z,1.75
2022-08-22T13:11:01.249Z,1.40
2022-08-22T13:13:56.095Z,1.58
2022-08-22T13:16:26.392Z,1.20
2022-08-22T13:19:17.132Z,1.00
2022-08-22T13:21:49.575Z,1.55
2022-08-22T13:24:38.564Z,1.98
2022-08-22T13:27:21.347Z,1.20
2022-08-22T13:29:55.574Z,1.48
2022-08-22T13:32:27.909Z,1.75
2022-08-22T13:34:57.605Z,1.35
2022-08-22T13:37:44.289Z,1.38
2022-08-22T13:40:21.752Z,1.35
2022-08-22T13:42:54.838Z,1.30
2022-08-22T13:45:27.859Z,1.77
2022-08-22T13:47:59.791Z,1.83
2022-08-22T13:50:37.075Z,1.48
2022-08-22T13:53:35.786Z,1.70
2022-08-22T13:56:15.985Z,1.63
2022-08-22T13:58:46.721Z,1.50
2022-08-22T14:01:58.969Z,1.50
2022-08-22T14:04:35.862Z,1.20
2022-08-22T14:07:04.538Z,1.20
2022-08-22T14:10:20.888Z,1.50
2022-08-22T14:12:57.020Z,1.75
2022-08-22T14:15:45.497Z,1.58
2022-08-22T14:18:30.250Z,1.33
2022-08-22T14:21:44.703Z,1.23
2022-08-22T14:24:19.183Z,1.63
2022-08-22T14:27:13.629Z,1.67
2022-08-22T14:29:41.813Z,1.33
2022-08-22T14:32:13.139Z,1.60
2022-08-22T14:34:45.297Z,1.50
2022-08-22T14:37:25.296Z,1.55
2022-08-22T14:40:06.126Z,1.23
2022-08-22T14:42:44.363Z,0.98
2022-08-22T14:45:20.077Z,1.20
2022-08-22T14:48:30.921Z,2.15
2022-08-22T14:51:04.146Z,1.50
2022-08-22T14:53:37.528Z,1.77
2022-08-22T14:56:09.076Z,1.13
2022-08-22T14:58:55.097Z,1.70
2022-08-22T15:01:25.398Z,1.33
2022-08-22T15:03:59.708Z,1.65
2022-08-22T15:06:47.697Z,1.48
2022-08-22T15:09:43.026Z,1.33
2022-08-22T15:12:33.415Z,1.30
2022-08-22T15:15:04.238Z,1.30
2022-08-22T15:17:39.699Z,1.10
2022-08-22T15:20:12.101Z,1.35
2022-08-22T15:22:41.406Z,1.30
2022-08-22T15:25:40.872Z,1.50
2022-08-22T15:28:20.312Z,1.48
2022-08-22T15:31:03.727Z,1.30
2022-08-22T15:33:39.169Z,1.45
2022-08-22T15:36:12.517Z,1.42
2022-08-22T15:38:46.904Z,1.38
2022-08-22T15:41:35.991Z,1.58
2022-08-22T15:44:14.797Z,1.10
2022-08-22T15:47:11.608Z,1.50
2022-08-22T15:50:01.426Z,1.45
2022-08-22T15:52:34.004Z,1.42
2022-08-22T15:55:20.074Z,1.45
2022-08-22T15:58:21.145Z,1.48
2022-08-22T16:01:20.107Z,1.45
2022-08-22T16:04:07.865Z,1.30
2022-08-22T16:06:55.498Z,1.10
2022-08-22T16:09:43.543Z,1.35
2022-08-22T16:12:44.513Z,1.40
2022-08-22T16:15:51.544Z,1.25
2022-08-22T16:18:49.297Z,1.42
2022-08-22T16:21:16.796Z,1.30
2022-08-22T16:23:46.933Z,1.48
2022-08-22T16:26:28.684Z,1.35
2022-08-22T16:29:08.313Z,1.45
2022-08-22T16:31:43.639Z,1.27
2022-08-22T16:34:16.996Z,1.10
2022-08-22T16:36:53.447Z,1.60
2022-08-22T16:39:24.489Z,1.80
2022-08-22T16:41:56.335Z,1.45
2022-08-22T16:44:23.781Z,1.40
2022-08-22T16:46:53.933Z,2.45
2022-08-22T16:49:32.955Z,1.60
2022-08-22T16:52:25.164Z,1.77
2022-08-22T16:54:58.840Z,2.28
2022-08-22T16:57:31.300Z,1.38
2022-08-22T17:00:27.034Z,1.40
2022-08-22T17:03:00.348Z,1.90
2022-08-22T17:05:30.621Z,1.40
2022-08-22T17:08:28.003Z,1.30
2022-08-22T17:11:13.866Z,1.50
2022-08-22T17:13:44.338Z,1.48
2022-08-22T17:16:30.545Z,1.60
2022-08-22T17:19:03.702Z,1.58
2022-08-22T17:21:51.804Z,1.38
2022-08-22T17:24:31.661Z,1.42
2022-08-22T17:27:14.298Z,1.30
2022-08-22T17:29:53.824Z,1.70
2022-08-22T17:32:32.644Z,1.50
2022-08-22T17:35:08.695Z,1.65
2022-08-22T17:37:39.344Z,1.33
2022-08-22T17:40:09.527Z,1.50
2022-08-22T17:42:46.036Z,2.10
2022-08-22T17:45:12.964Z,1.40
2022-08-22T17:48:00.801Z,1.60
2022-08-22T17:50:40.248Z,1.88
2022-08-22T17:53:34.398Z,3.13
2022-08-22T17:56:19.912Z,2.05
2022-08-22T17:58:59.573Z,2.45
2022-08-22T18:01:41.406Z,1.83
2022-08-22T18:04:25.272Z,1.58
2022-08-22T18:07:15.860Z,2.25
2022-08-22T18:09:49.262Z,1.90
2022-08-22T18:12:34.351Z,2.03
2022-08-22T18:15:27.705Z,1.85
2022-08-22T18:18:17.999Z,1.80
2022-08-22T18:20:45.551Z,2.00
2022-08-22T18:23:35.717Z,2.25
2022-08-22T18:26:17.926Z,2.42
2022-08-22T18:29:00.766Z,1.90
2022-08-22T18:31:28.266Z,1.48
2022-08-22T18:34:23.163Z,1.88
2022-08-22T18:37:20.121Z,1.75
2022-08-22T18:39:55.274Z,2.60
2022-08-22T18:42:26.045Z,1.80
2022-08-22T18:44:53.331Z,2.30
2022-08-22T18:47:33.091Z,2.00
2022-08-22T18:50:03.224Z,1.60
2022-08-22T18:55:09.025Z,1.95
2022-08-22T18:57:45.219Z,1.80
2022-08-22T19:00:38.976Z,2.30
2022-08-22T19:03:38.126Z,2.20
2022-08-22T19:06:22.353Z,2.28
2022-08-22T19:08:53.508Z,2.05
2022-08-22T19:11:56.838Z,2.25
2022-08-22T19:14:55.762Z,2.50
2022-08-22T19:17:43.364Z,2.42
2022-08-22T19:21:11.472Z,2.20
2022-08-22T19:23:43.642Z,2.55
2022-08-22T19:26:33.158Z,2.15
2022-08-22T19:29:24.262Z,2.22
2022-08-22T19:31:53.338Z,2.35
2022-08-22T19:34:22.208Z,2.38
2022-08-22T19:37:32.231Z,2.00
2022-08-22T19:40:02.524Z,2.22
2022-08-22T19:42:38.715Z,2.80
2022-08-22T19:45:26.712Z,1.98
2022-08-22T19:48:14.714Z,2.50
2022-08-22T19:50:43.919Z,2.75
2022-08-22T19:53:11.301Z,2.53
2022-08-22T19:55:38.519Z,2.97
2022-08-22T19:58:05.562Z,2.53
2022-08-22T20:01:20.953Z,2.17
2022-08-22T20:03:59.863Z,2.70
2022-08-22T20:06:44.095Z,2.28
2022-08-22T20:09:42.747Z,2.63
2022-08-22T20:12:22.126Z,2.88
2022-08-22T20:14:50.410Z,2.60
2022-08-22T20:17:26.769Z,2.53
2022-08-22T20:20:18.716Z,1.77
2022-08-22T20:22:59.670Z,2.90
2022-08-22T20:25:41.500Z,2.65
2022-08-22T20:28:34.056Z,2.47
2022-08-22T20:31:04.615Z,2.47
2022-08-22T20:33:46.071Z,2.10
2022-08-22T20:36:28.594Z,3.25
2022-08-22T20:39:08.128Z,2.65
2022-08-22T20:41:41.146Z,2.08
2022-08-22T20:44:17.508Z,2.30
2022-08-22T20:46:58.179Z,2.50
2022-08-22T20:49:29.355Z,1.90
2022-08-22T20:52:00.085Z,1.70
2022-08-22T20:54:30.202Z,2.33
2022-08-22T20:59:37.086Z,1.70
2022-08-22T21:02:19.140Z,2.00
2022-08-22T21:04:51.148Z,1.60
2022-08-22T21:07:44.325Z,2.28
2022-08-22T21:10:40.369Z,1.85
2022-08-22T21:13:26.203Z,2.05
2022-08-22T21:16:12.732Z,2.00
2022-08-22T21:18:45.877Z,1.73
2022-08-22T21:21:28.864Z,1.90
2022-08-22T21:24:00.805Z,1.98
2022-08-22T21:26:29.865Z,1.73
2022-08-22T21:29:02.437Z,1.98
2022-08-22T21:32:04.851Z,1.90
2022-08-22T21:34:42.376Z,1.80
2022-08-22T21:37:12.465Z,1.88
2022-08-22T21:42:34.422Z,1.95
2022-08-22T21:45:27.764Z,2.00
2022-08-22T21:47:55.334Z,1.73
2022-08-22T21:50:25.828Z,2.03
2022-08-22T21:52:55.608Z,1.83
2022-08-22T21:55:43.731Z,2.13
2022-08-22T21:58:36.103Z,2.15
2022-08-22T22:01:28.526Z,2.08
2022-08-22T22:03:56.079Z,2.00
2022-08-22T22:06:23.481Z,2.17
2022-08-22T22:08:50.901Z,2.05
2022-08-22T22:11:18.513Z,2.05
2022-08-22T22:13:46.223Z,1.95
2022-08-22T22:16:14.096Z,1.80
2022-08-22T22:18:41.458Z,1.80
2022-08-22T22:21:09.230Z,2.15
2022-08-22T22:23:36.550Z,1.92
2022-08-22T22:26:06.047Z,2.40
2022-08-22T22:28:37.010Z,2.10
2022-08-22T22:31:04.609Z,2.00
2022-08-22T22:33:34.915Z,2.55
2022-08-22T22:36:20.684Z,2.30
2022-08-22T22:38:51.551Z,1.83
2022-08-22T22:41:20.689Z,2.13
2022-08-22T22:43:48.272Z,2.40
2022-08-22T22:46:15.788Z,1.70
2022-08-22T22:48:43.431Z,1.83
2022-08-22T22:51:12.289Z,2.38
2022-08-22T22:53:42.911Z,1.80
2022-08-22T22:56:16.437Z,2.53
2022-08-22T22:58:44.334Z,2.00
2022-08-22T23:01:17.524Z,2.42
2022-08-22T23:03:45.632Z,2.65
2022-08-22T23:06:15.605Z,1.90
2022-08-22T23:08:43.201Z,2.10
2022-08-22T23:11:12.801Z,2.00
2022-08-22T23:13:41.727Z,2.30
2022-08-22T23:16:17.512Z,2.28
2022-08-22T23:18:44.956Z,2.10
2022-08-22T23:21:19.561Z,2.03
2022-08-22T23:23:47.930Z,2.40
2022-08-22T23:26:15.765Z,2.10
2022-08-22T23:28:43.338Z,2.60
2022-08-22T23:31:16.574Z,2.20
2022-08-22T23:33:44.573Z,2.00
2022-08-22T23:36:14.303Z,2.15
2022-08-22T23:38:41.902Z,2.08
2022-08-22T23:41:10.330Z,2.08
2022-08-22T23:43:41.856Z,2.25
2022-08-22T23:46:09.065Z,2.20
2022-08-22T23:48:36.392Z,1.77
2022-08-22T23:51:03.372Z,1.92
2022-08-22T23:53:30.808Z,2.00
2022-08-22T23:55:59.288Z,2.00
2022-08-22T23:58:26.808Z,2.03
